Aérodrome :
LOGIN :

S'inscrire | Disclaimer

   EN    FR    IT 

 










Légende :    VFR   VFR Marginal   IFR   IFR Intensif   IFR Très Intensif
Visi : 
Plafond : 
>= 8 km
>= 3000ft
5 à 8 km
1000 à 3000 ft
1500m à 5 km
500 à 1000 ft
800 à 1500m
200 à 500 ft
< 800m
< 200 ft
Symboles :   Orages  Brouillard  Fortes neiges  Fortes précipitations  Vent > 20 kt
SIGMETs :   Divers  Orages  Givrage  Turbulence  Onde Orograph.  Cendres Volcan.







- Altitude de l'aérodrome : 324 ft
- Code IATA : KVB


ESGR - Skovde

DERNIER METAR :
  • 172350Z AUTO 29005KT 260V330 9999 NCD M05/M07 Q1002

METARs EXPIRÉS :
  • 172320Z AUTO 30006KT 9999 BKN040/// M04/M06 Q1001
  • 172250Z AUTO 30006KT 270V340 9999 BKN037/// M04/M06 Q1001
  • 172220Z AUTO 28005KT 9999 FEW042/// M05/M06 Q1001
  • 172150Z AUTO 27003KT 9999 FEW057/// M05/M06 Q1000
  • 172120Z AUTO 27004KT 9999 NCD M05/M06 Q1000

TAF N/A
Pas de NOTAMs connus pour ce terrain.



MET'MAP, la Météo Aéronautique d'un coup d'oeil ! - Copyright ORBIFLY Décembre 2007 - Disclaimer

ORBIFLY MET'MAP TEAM :

Programmation & Développement : Alexandra Zaïnal
Conception & Développement : Baudouin d'Aumeries
Co-Programmation & Développement : Marc-Olivier Méhu
Soutien technique & logistique : Manuel Goepfert

Contact : metmap@orbifly.com




SOURCES & CREDITS :

   NOAA